Time;durP1;ratioP1;P1;durP2;ratioP2;P2;SDS_P1;SDS_P2;PMS_P1;PMS_P2;Temp;Humidity;BMP_temperature;BMP_pressure;BME280_temperature;BME280_humidity;BME280_pressure;Samples;Min_cycle;Max_cycle;Signal;HPM_P1;HPM_P2
2022/01/28 00:04:53;;;;;;;6.32;0.57;;;;;;;5.75;80.28;103209.94;5034870;28;96926;-36
2022/01/28 00:07:18;;;;;;;1.08;0.30;;;;;;;5.76;80.55;103219.78;5034863;28;98093;-36
2022/01/28 00:09:44;;;;;;;1.10;0.22;;;;;;;5.66;80.41;103197.41;5034943;27;97173;-36
2022/01/28 00:12:10;;;;;;;0.22;0.17;;;;;;;5.65;80.42;103208.16;5035239;28;96548;-36
2022/01/28 00:14:45;;;;;;;0.00;0.00;;;;;;;5.76;80.24;103225.16;5033801;28;96931;-36
2022/01/28 00:17:50;;;;;;;0.20;0.15;;;;;;;5.77;80.65;103234.09;5034645;27;99483;-36
2022/01/28 00:38:57;;;;;;;0.55;0.30;;;;;;;5.78;80.37;103233.22;5034535;27;97867;-36
2022/01/28 00:41:23;;;;;;;0.55;0.28;;;;;;;5.55;80.20;103193.84;5033468;28;127026;-36
2022/01/28 00:43:48;;;;;;;0.17;0.13;;;;;;;5.77;80.32;103243.09;5034557;28;96708;-36
2022/01/28 00:46:13;;;;;;;7.35;1.10;;;;;;;5.81;80.71;103244.84;5035262;28;96789;-36
2022/01/28 00:48:39;;;;;;;0.35;0.32;;;;;;;5.67;80.60;103215.34;5033917;27;111893;-36
2022/01/28 00:51:05;;;;;;;3.72;0.30;;;;;;;5.80;80.72;103239.50;5034310;27;99093;-36
2022/01/28 00:53:30;;;;;;;0.47;0.13;;;;;;;5.83;80.90;103261.88;5032820;28;96596;-35
2022/01/28 00:55:57;;;;;;;3.92;0.55;;;;;;;5.68;80.86;103237.75;5034742;27;96818;-36
2022/01/28 00:58:23;;;;;;;4.95;0.82;;;;;;;5.81;80.98;103274.44;5015911;28;100932;-36
2022/01/28 01:00:49;;;;;;;3.42;0.30;;;;;;;5.79;80.75;103268.16;5032784;28;100789;-36
2022/01/28 01:03:14;;;;;;;1.05;0.40;;;;;;;5.70;80.72;103258.34;5033316;28;113598;-35
2022/01/28 01:05:40;;;;;;;1.80;0.28;;;;;;;5.73;81.19;103260.13;5034389;27;96816;-36
2022/01/28 01:08:06;;;;;;;4.30;0.20;;;;;;;5.61;81.00;103228.78;5033925;27;99617;-36
2022/01/28 01:10:32;;;;;;;6.03;0.28;;;;;;;5.69;81.60;103247.56;5036133;28;101137;-36
2022/01/28 01:12:58;;;;;;;0.40;0.20;;;;;;;5.70;81.35;103238.63;5036482;28;96572;-36
2022/01/28 01:15:28;;;;;;;0.45;0.30;;;;;;;5.83;81.29;103264.56;5038160;27;96784;-36
2022/01/28 01:18:01;;;;;;;2.67;0.68;;;;;;;5.68;81.33;103235.94;5036875;28;97890;-36
2022/01/28 01:25:45;;;;;;;5.18;0.43;;;;;;;5.69;81.52;103245.78;5035144;27;96555;-36
2022/01/28 01:28:12;;;;;;;3.35;0.40;;;;;;;5.69;81.89;103244.88;5037727;27;97889;-35
2022/01/28 01:30:41;;;;;;;0.35;0.15;;;;;;;5.63;81.58;103247.63;5035813;28;98945;-36
2022/01/28 01:33:07;;;;;;;4.68;0.40;;;;;;;5.81;81.90;103290.56;5036258;28;96526;-36
2022/01/28 01:35:32;;;;;;;0.50;0.08;;;;;;;5.70;82.20;103279.84;5036545;28;96808;-36
2022/01/28 01:37:58;;;;;;;0.00;0.00;;;;;;;5.67;82.04;103276.25;5037152;27;99525;-36
2022/01/28 01:40:30;;;;;;;0.63;0.20;;;;;;;5.81;82.48;103304.03;5035884;28;100852;-36
2022/01/28 01:43:07;;;;;;;0.23;0.10;;;;;;;5.69;82.42;103291.50;5037309;27;96817;-36
2022/01/28 01:53:27;;;;;;;0.98;0.30;;;;;;;5.73;82.48;103289.72;5037946;28;96506;-36
2022/01/28 01:55:53;;;;;;;3.92;0.38;;;;;;;5.82;82.50;103310.31;5036759;28;107676;-36
2022/01/28 01:58:29;;;;;;;4.80;1.33;;;;;;;5.84;82.69;103313.88;5036905;27;97810;-36
2022/01/28 02:00:55;;;;;;;0.10;0.10;;;;;;;5.83;82.96;103312.09;5037266;27;99268;-36
2022/01/28 02:03:21;;;;;;;1.10;0.32;;;;;;;5.64;82.90;103274.47;5035172;28;96562;-36
2022/01/28 02:05:47;;;;;;;0.45;0.28;;;;;;;5.89;82.89;103317.47;5036994;28;98290;-36
2022/01/28 02:08:12;;;;;;;6.72;0.43;;;;;;;5.80;83.14;103304.94;5036275;27;97431;-36
2022/01/28 02:10:37;;;;;;;2.90;0.15;;;;;;;5.90;83.17;103317.44;5036616;27;100073;-36
2022/01/28 02:13:03;;;;;;;1.02;0.60;;;;;;;5.93;84.16;103320.16;5036154;28;117378;-36
2022/01/28 02:15:28;;;;;;;0.57;0.20;;;;;;;5.83;83.33;103304.91;5036962;28;96866;-36
2022/01/28 02:17:53;;;;;;;1.48;0.30;;;;;;;5.96;83.57;103335.44;5036751;27;97799;-36
2022/01/28 02:20:48;;;;;;;1.48;0.43;;;;;;;5.93;84.09;103333.59;5034987;28;122047;-36
2022/01/28 02:23:09;;;;;;;0.00;0.00;;;;;;;5.91;84.25;103343.47;5036639;28;96448;-36
2022/01/28 02:25:35;;;;;;;0.30;0.15;;;;;;;5.70;84.28;103309.44;5037348;27;96791;-36
2022/01/28 02:28:04;;;;;;;2.40;0.30;;;;;;;5.66;84.46;103301.38;5036593;27;97826;-36
2022/01/28 02:30:30;;;;;;;1.27;0.45;;;;;;;5.75;84.40;103336.31;5034795;28;100096;-36
2022/01/28 02:33:11;;;;;;;2.55;0.60;;;;;;;5.69;84.72;103321.06;5034774;28;96680;-36
2022/01/28 02:35:38;;;;;;;0.00;0.00;;;;;;;5.60;84.59;103307.66;5035298;28;96725;-36
2022/01/28 02:38:04;;;;;;;0.20;0.10;;;;;;;5.67;84.76;103309.44;5034896;28;100701;-36
2022/01/28 02:40:30;;;;;;;9.63;0.32;;;;;;;5.68;84.44;103326.47;5036242;28;97828;-36
2022/01/28 02:43:04;;;;;;;8.88;0.57;;;;;;;5.67;84.78;103330.97;5035323;28;96482;-36
2022/01/28 02:45:35;;;;;;;0.30;0.22;;;;;;;5.42;84.68;103289.75;5035383;28;96682;-36
2022/01/28 02:48:05;;;;;;;1.40;0.28;;;;;;;5.66;84.72;103325.56;5036440;27;98003;-35
2022/01/28 02:50:38;;;;;;;2.17;0.05;;;;;;;5.67;84.68;103330.97;5036339;27;97808;-36
2022/01/28 02:53:09;;;;;;;0.88;0.40;;;;;;;5.50;84.78;103301.38;5035044;28;96591;-36
2022/01/28 02:55:41;;;;;;;2.28;0.40;;;;;;;5.66;84.84;103334.53;5036838;27;96584;-36
2022/01/28 02:58:22;;;;;;;0.05;0.05;;;;;;;5.65;85.01;103343.50;5033830;28;101170;-36
2022/01/28 03:00:48;;;;;;;9.35;0.47;;;;;;;5.58;84.82;103327.34;5035820;28;99307;-36
2022/01/28 03:03:18;;;;;;;6.50;0.65;;;;;;;5.60;85.16;103341.69;5035701;27;96782;-36
2022/01/28 03:05:44;;;;;;;4.65;0.52;;;;;;;5.49;84.96;103326.47;5036058;28;96886;-36
2022/01/28 03:08:09;;;;;;;0.55;0.45;;;;;;;5.59;85.55;103345.28;5035998;27;97286;-36
2022/01/28 03:13:28;;;;;;;16.80;1.30;;;;;;;5.55;85.33;103339.00;5036083;27;96619;-36
2022/01/28 03:15:55;;;;;;;0.32;0.13;;;;;;;5.57;85.54;103350.66;5034949;28;96840;-36
2022/01/28 03:18:26;;;;;;;0.57;0.05;;;;;;;5.45;85.57;103343.50;5035748;27;97529;-36
2022/01/28 03:23:16;;;;;;;4.72;0.30;;;;;;;5.50;85.55;103343.50;5035483;27;96691;-36
2022/01/28 03:25:43;;;;;;;0.00;0.00;;;;;;;5.50;85.38;103349.75;5035939;27;96746;-36
2022/01/28 03:28:09;;;;;;;1.63;0.32;;;;;;;5.40;85.43;103342.59;5035448;27;98222;-36
2022/01/28 03:30:35;;;;;;;2.33;0.82;;;;;;;5.47;85.57;103354.25;5035590;27;97738;-36
2022/01/28 03:33:00;;;;;;;0.20;0.10;;;;;;;5.48;85.46;103354.25;5034945;27;104042;-36
2022/01/28 03:35:25;;;;;;;0.85;0.22;;;;;;;5.46;85.23;103347.09;5035831;27;96822;-36
2022/01/28 03:37:59;;;;;;;1.65;0.43;;;;;;;5.40;85.05;103328.28;5035305;27;99212;-36
2022/01/28 03:40:25;;;;;;;0.30;0.25;;;;;;;5.49;85.05;103352.47;5034485;28;100885;-36
2022/01/28 03:42:50;;;;;;;1.08;0.35;;;;;;;5.36;84.74;103337.22;5035771;27;96621;-36
2022/01/28 03:45:17;;;;;;;6.97;0.40;;;;;;;5.46;84.82;103352.47;5035801;27;96762;-36
2022/01/28 03:47:42;;;;;;;3.20;0.10;;;;;;;5.42;84.79;103362.31;5034831;27;97986;-36
2022/01/28 03:50:07;;;;;;;0.65;0.20;;;;;;;5.46;84.35;103376.66;5035339;27;97888;-36
2022/01/28 03:52:33;;;;;;;0.05;0.05;;;;;;;5.43;84.59;103372.16;5035650;27;96462;-36
2022/01/28 03:54:58;;;;;;;0.10;0.10;;;;;;;5.35;84.68;103365.88;5034633;28;113363;-36
2022/01/28 03:57:23;;;;;;;8.75;0.40;;;;;;;5.28;84.06;103364.09;5035058;27;97422;-36
2022/01/28 03:59:49;;;;;;;0.00;0.00;;;;;;;5.25;83.66;103364.09;5034984;27;97278;-36
2022/01/28 04:02:19;;;;;;;0.40;0.20;;;;;;;5.31;83.88;103369.47;5035195;28;96450;-36
2022/01/28 04:12:50;;;;;;;1.05;0.13;;;;;;;5.27;83.43;103379.31;5035152;28;96557;-36
2022/01/28 04:15:48;;;;;;;0.98;0.13;;;;;;;5.18;83.44;103364.97;5035286;27;96730;-36
2022/01/28 04:18:13;;;;;;;0.38;0.20;;;;;;;5.25;83.51;103396.34;5034373;27;98722;-36
2022/01/28 04:20:38;;;;;;;4.50;0.32;;;;;;;5.13;83.38;103378.41;5034077;28;115870;-36
2022/01/28 04:23:03;;;;;;;0.15;0.08;;;;;;;5.27;83.45;103402.63;5034176;28;117220;-36
2022/01/28 04:25:29;;;;;;;0.10;0.10;;;;;;;5.15;83.70;103391.81;5034079;28;116433;-36
2022/01/28 04:27:54;;;;;;;0.95;0.30;;;;;;;5.13;83.49;103388.25;5034640;27;97807;-36
2022/01/28 04:30:19;;;;;;;1.23;0.22;;;;;;;5.19;83.54;103415.13;5033978;28;126941;-36
2022/01/28 04:32:47;;;;;;;2.45;0.22;;;;;;;5.23;83.44;103425.00;5033918;28;116871;-36
2022/01/28 04:35:12;;;;;;;0.93;0.60;;;;;;;5.09;83.71;103407.03;5035062;27;96742;-36
2022/01/28 04:37:51;;;;;;;1.02;0.30;;;;;;;5.08;83.12;103407.94;5034050;28;98038;-36
2022/01/28 04:40:20;;;;;;;0.38;0.25;;;;;;;5.19;83.38;103425.88;5034604;28;97891;-36
2022/01/28 04:58:08;;;;;;;1.58;0.35;;;;;;;4.93;83.56;103413.25;5037488;27;97940;-36
2022/01/28 05:13:52;;;;;;;2.08;0.55;;;;;;;4.97;84.08;103435.66;5038140;28;96626;-36
2022/01/28 05:24:34;;;;;;;0.20;0.20;;;;;;;4.86;83.73;103416.81;5038282;28;96555;-36
2022/01/28 05:27:01;;;;;;;12.63;0.50;;;;;;;4.84;83.83;103426.66;5037707;28;96659;-36
2022/01/28 05:29:26;;;;;;;0.80;0.20;;;;;;;4.74;83.80;103419.44;5037169;27;97943;-35
2022/01/28 05:31:52;;;;;;;0.35;0.15;;;;;;;4.81;83.92;103440.94;5034955;28;122689;-36
2022/01/28 05:34:17;;;;;;;0.00;0.00;;;;;;;4.82;83.83;103437.41;5036378;28;96629;-36
2022/01/28 05:36:43;;;;;;;1.05;0.22;;;;;;;4.66;83.82;103419.41;5036154;28;96802;-36
2022/01/28 05:39:09;;;;;;;7.38;0.13;;;;;;;4.66;84.08;103427.47;5035951;28;100795;-36
2022/01/28 05:41:34;;;;;;;0.10;0.10;;;;;;;4.63;83.66;103436.41;5036686;27;105517;-36
2022/01/28 05:44:02;;;;;;;0.00;0.00;;;;;;;4.57;83.48;103432.78;5037464;27;96699;-36
2022/01/28 05:46:28;;;;;;;6.50;0.30;;;;;;;4.63;83.79;103465.06;5037944;27;96762;-36
2022/01/28 05:48:55;;;;;;;0.93;0.30;;;;;;;4.49;84.16;103447.97;5037096;27;97914;-36
2022/01/28 05:51:21;;;;;;;2.22;0.40;;;;;;;4.51;83.76;103465.88;5035594;28;100899;-36
2022/01/28 05:53:46;;;;;;;0.68;0.38;;;;;;;4.43;83.97;103452.41;5036357;28;104165;-36
2022/01/28 05:56:11;;;;;;;0.00;0.00;;;;;;;4.39;84.34;103447.03;5036778;27;100854;-36
2022/01/28 05:58:36;;;;;;;1.17;0.43;;;;;;;4.33;84.01;103460.38;5035811;28;126924;-36
2022/01/28 06:01:02;;;;;;;0.75;0.43;;;;;;;4.34;84.11;103478.25;5036104;28;125243;-36
2022/01/28 06:03:27;;;;;;;1.27;0.20;;;;;;;4.26;83.63;103479.09;5036467;27;96712;-36
2022/01/28 06:05:52;;;;;;;0.88;0.22;;;;;;;4.23;83.40;103480.88;5036264;28;116792;-36
2022/01/28 06:08:19;;;;;;;0.30;0.30;;;;;;;4.04;84.27;103458.38;5036626;27;99016;-36
2022/01/28 06:10:44;;;;;;;0.63;0.30;;;;;;;4.05;84.49;103462.84;5036698;27;99558;-36
2022/01/28 06:13:11;;;;;;;0.00;0.00;;;;;;;4.08;84.00;103487.03;5036545;28;106990;-36
2022/01/28 06:15:40;;;;;;;0.03;0.03;;;;;;;3.99;83.88;103486.97;5035699;28;96573;-36
2022/01/28 06:18:05;;;;;;;0.00;0.00;;;;;;;4.06;83.70;103498.63;5036154;28;98015;-36
2022/01/28 06:20:30;;;;;;;0.57;0.30;;;;;;;3.87;83.90;103481.50;5035845;28;126655;-36
2022/01/28 06:22:55;;;;;;;0.10;0.10;;;;;;;3.86;83.85;103490.41;5036059;28;116009;-36
2022/01/28 06:25:21;;;;;;;0.35;0.10;;;;;;;3.90;84.02;103511.91;5036828;28;96967;-36
2022/01/28 06:27:46;;;;;;;0.00;0.00;;;;;;;3.72;83.77;103492.94;5035580;28;125022;-36
2022/01/28 06:30:13;;;;;;;0.52;0.20;;;;;;;3.77;84.12;103512.69;5036056;28;116851;-36
2022/01/28 06:32:38;;;;;;;0.68;0.28;;;;;;;3.74;84.03;103523.34;5035175;28;97793;-36
2022/01/28 06:35:08;;;;;;;0.35;0.35;;;;;;;3.62;84.22;103510.72;5037098;27;96700;-35
2022/01/28 06:37:35;;;;;;;0.05;0.05;;;;;;;3.56;84.04;103505.31;5036224;27;98020;-36
2022/01/28 06:40:00;;;;;;;0.10;0.10;;;;;;;3.61;83.85;103525.00;5034778;28;100712;-36
2022/01/28 06:42:26;;;;;;;2.25;0.22;;;;;;;3.44;83.92;103514.13;5036150;27;96646;-36
2022/01/28 06:44:51;;;;;;;0.47;0.40;;;;;;;3.56;83.86;103554.44;5034174;28;119354;-36
2022/01/28 06:47:16;;;;;;;2.83;1.15;;;;;;;3.40;83.78;103539.97;5036389;27;97351;-36
2022/01/28 06:49:42;;;;;;;0.65;0.40;;;;;;;3.32;84.24;103533.63;5035887;28;110624;-36
2022/01/28 06:52:07;;;;;;;1.13;0.50;;;;;;;3.33;84.32;103545.22;5036475;27;96695;-36
2022/01/28 06:54:33;;;;;;;0.30;0.28;;;;;;;3.43;84.12;103573.03;5036122;27;96819;-36
2022/01/28 06:56:58;;;;;;;6.93;0.70;;;;;;;3.24;83.96;103553.16;5036197;27;97904;-36
2022/01/28 06:59:23;;;;;;;0.13;0.13;;;;;;;3.31;84.01;103564.00;5035682;28;120927;-36
2022/01/28 07:01:48;;;;;;;0.25;0.22;;;;;;;3.23;84.00;103556.72;5034417;28;102198;-36
2022/01/28 07:04:14;;;;;;;1.98;0.57;;;;;;;3.18;84.57;103554.88;5035745;27;101958;-36
2022/01/28 07:06:39;;;;;;;2.40;0.75;;;;;;;3.08;84.15;103550.28;5033178;28;99548;-36
2022/01/28 07:09:11;;;;;;;0.85;0.38;;;;;;;3.18;83.94;103581.66;5034356;28;100489;-36
2022/01/28 07:11:36;;;;;;;0.22;0.22;;;;;;;3.12;83.99;103561.91;5036277;27;96559;-36
2022/01/28 07:14:01;;;;;;;2.10;0.80;;;;;;;2.92;83.95;103533.09;5036067;28;96559;-36
2022/01/28 07:16:27;;;;;;;0.77;0.73;;;;;;;2.93;83.96;103544.69;5035545;27;115789;-36
2022/01/28 07:18:52;;;;;;;2.58;1.13;;;;;;;3.06;84.34;103572.56;5035843;28;97882;-36
2022/01/28 07:21:17;;;;;;;2.15;1.42;;;;;;;2.98;83.57;103562.66;5036165;27;96700;-36
2022/01/28 07:23:43;;;;;;;5.43;0.45;;;;;;;3.00;84.02;103569.78;5035712;28;107972;-36
2022/01/28 07:26:08;;;;;;;0.95;0.80;;;;;;;2.94;84.38;103563.47;5034808;28;119101;-36
2022/01/28 07:28:35;;;;;;;0.95;0.68;;;;;;;2.98;84.52;103576.03;5035895;27;97302;-36
2022/01/28 07:31:01;;;;;;;4.32;0.82;;;;;;;2.86;84.78;103562.47;5033968;28;96668;-36
2022/01/28 07:33:26;;;;;;;0.65;0.35;;;;;;;2.98;84.60;103589.44;5035907;27;96710;-36
2022/01/28 07:35:51;;;;;;;1.15;0.52;;;;;;;3.01;84.79;103598.38;5035396;27;97203;-36
2022/01/28 07:38:17;;;;;;;1.20;0.75;;;;;;;2.91;84.92;103576.84;5034788;27;111656;-36
2022/01/28 07:40:42;;;;;;;3.75;1.15;;;;;;;2.91;85.00;103567.91;5034962;27;108156;-36
2022/01/28 07:43:07;;;;;;;2.97;0.68;;;;;;;2.88;84.47;103567.84;5035728;27;96731;-36
2022/01/28 07:45:33;;;;;;;0.40;0.20;;;;;;;3.05;84.52;103608.22;5034934;28;109143;-36
2022/01/28 07:47:58;;;;;;;6.60;1.30;;;;;;;2.85;84.85;103579.41;5035296;27;107627;-36
2022/01/28 07:50:23;;;;;;;0.35;0.25;;;;;;;3.03;84.38;103618.94;5034740;28;111244;-36
2022/01/28 07:52:48;;;;;;;0.10;0.10;;;;;;;3.04;84.50;103628.75;5034438;28;113174;-36
2022/01/28 07:55:14;;;;;;;0.93;0.68;;;;;;;2.93;84.76;103615.22;5034328;27;112635;-36
2022/01/28 07:57:41;;;;;;;3.55;1.05;;;;;;;3.06;84.70;103639.50;5034614;28;99324;-36
2022/01/28 08:00:08;;;;;;;7.78;0.57;;;;;;;3.03;84.91;103632.34;5033974;28;96832;-36
2022/01/28 08:02:34;;;;;;;3.65;0.52;;;;;;;2.91;84.91;103611.63;5035194;28;96825;-36
2022/01/28 08:05:00;;;;;;;0.52;0.30;;;;;;;3.02;84.70;103634.97;5034752;27;97274;-36
2022/01/28 08:07:25;;;;;;;0.47;0.47;;;;;;;3.00;84.51;103642.09;5033203;28;103530;-36
2022/01/28 08:09:51;;;;;;;1.50;0.52;;;;;;;2.89;84.96;103625.88;5035389;27;96580;-36
2022/01/28 08:12:16;;;;;;;1.95;0.57;;;;;;;2.92;84.55;103626.81;5035725;28;96794;-36
2022/01/28 08:14:42;;;;;;;1.58;0.25;;;;;;;2.93;84.95;103639.34;5034956;27;97429;-36
2022/01/28 08:17:08;;;;;;;4.70;0.63;;;;;;;2.85;84.85;103618.66;5034737;28;98299;-36
2022/01/28 08:19:33;;;;;;;0.55;0.50;;;;;;;2.95;85.14;103642.00;5033669;27;96488;-36
2022/01/28 08:21:58;;;;;;;0.25;0.22;;;;;;;3.04;84.50;103650.19;5034341;28;101882;-36
2022/01/28 08:24:24;;;;;;;0.30;0.30;;;;;;;2.93;84.84;103636.66;5034863;28;98384;-36
2022/01/28 08:26:49;;;;;;;1.33;0.65;;;;;;;3.04;84.67;103642.16;5034762;28;108342;-36
2022/01/28 08:29:14;;;;;;;6.22;0.63;;;;;;;2.96;84.74;103642.03;5035011;27;96498;-36
2022/01/28 08:31:40;;;;;;;2.45;0.73;;;;;;;2.84;84.95;103620.44;5034527;27;101967;-36
2022/01/28 08:34:06;;;;;;;0.52;0.45;;;;;;;3.01;85.02;103652.81;5034536;27;97747;-36
2022/01/28 08:36:33;;;;;;;0.32;0.32;;;;;;;2.97;85.05;103630.44;5034692;27;99195;-36
2022/01/28 08:38:58;;;;;;;0.80;0.68;;;;;;;3.18;85.19;103671.81;5034916;27;96451;-36
2022/01/28 08:41:24;;;;;;;2.92;0.90;;;;;;;3.19;85.03;103670.94;5033483;28;97029;-36
2022/01/28 08:43:53;;;;;;;1.48;0.77;;;;;;;3.05;85.31;103635.94;5033960;28;97888;-36
2022/01/28 08:46:19;;;;;;;7.88;0.88;;;;;;;3.16;85.66;103644.13;5034284;27;97847;-36
2022/01/28 08:48:44;;;;;;;0.85;0.50;;;;;;;3.22;85.35;103638.84;5034951;27;96695;-36
2022/01/28 08:51:09;;;;;;;0.85;0.75;;;;;;;3.29;85.79;103632.72;5034362;27;96790;-36
2022/01/28 08:53:48;;;;;;;0.40;0.20;;;;;;;3.44;85.13;103650.75;5032412;28;110517;-36
2022/01/28 08:56:19;;;;;;;8.60;0.88;;;;;;;3.50;85.06;103653.50;5032963;28;101068;-36
2022/01/28 08:58:44;;;;;;;4.45;1.00;;;;;;;3.66;85.72;103667.13;5033619;28;116739;-36
2022/01/28 09:01:11;;;;;;;5.57;1.27;;;;;;;3.71;85.55;103660.91;5032458;28;116936;-36
2022/01/28 09:03:36;;;;;;;6.40;1.38;;;;;;;3.80;85.64;103670.88;5033742;27;97867;-36
2022/01/28 09:06:02;;;;;;;6.97;1.80;;;;;;;3.75;85.89;103646.69;5034163;27;97766;-36
2022/01/28 09:08:27;;;;;;;1.33;1.05;;;;;;;3.90;85.72;103662.03;5034044;27;96430;-36
2022/01/28 09:11:18;;;;;;;1.50;1.20;;;;;;;3.88;86.21;103650.41;5032953;28;96807;-36
2022/01/28 09:13:43;;;;;;;13.77;1.40;;;;;;;4.07;86.31;103678.31;5034228;27;97971;-36
2022/01/28 09:16:09;;;;;;;7.68;2.25;;;;;;;4.09;86.37;103670.31;5033928;28;107227;-36
2022/01/28 09:18:34;;;;;;;1.70;1.02;;;;;;;4.22;86.33;103685.66;5031857;28;116926;-36
2022/01/28 09:20:59;;;;;;;1.50;0.93;;;;;;;4.13;86.38;103665.00;5032940;28;96871;-36
2022/01/28 09:23:25;;;;;;;5.75;1.73;;;;;;;4.35;85.73;103689.38;5034408;27;97243;-36
2022/01/28 09:25:50;;;;;;;3.38;1.88;;;;;;;4.41;85.86;103690.34;5033658;28;119771;-36
2022/01/28 09:28:15;;;;;;;3.45;1.75;;;;;;;4.52;86.30;103698.47;5034059;27;96680;-36
2022/01/28 09:30:41;;;;;;;3.25;2.00;;;;;;;4.60;86.10;103694.09;5035765;27;96635;-36
2022/01/28 09:33:06;;;;;;;3.53;1.60;;;;;;;4.53;85.54;103661.78;5036947;27;97349;-36
2022/01/28 09:35:32;;;;;;;1.67;1.33;;;;;;;4.81;85.60;103689.78;5037256;27;98837;-36
2022/01/28 09:37:57;;;;;;;1.90;1.48;;;;;;;4.90;85.54;103692.56;5037858;28;96472;-36
2022/01/28 09:40:22;;;;;;;3.45;1.50;;;;;;;4.81;85.55;103653.09;5037564;27;96842;-36
2022/01/28 09:42:51;;;;;;;2.33;1.30;;;;;;;4.99;85.17;103668.47;5037333;27;97841;-36
2022/01/28 09:45:20;;;;;;;2.40;1.52;;;;;;;5.07;84.74;103669.41;5035551;28;100899;-36
2022/01/28 09:47:56;;;;;;;5.60;1.70;;;;;;;5.31;84.39;103686.56;5036135;28;96529;-36
2022/01/28 09:50:28;;;;;;;5.25;1.38;;;;;;;5.40;84.08;103678.56;5036450;28;96867;-36
2022/01/28 09:52:56;;;;;;;5.38;1.48;;;;;;;5.63;84.14;103688.56;5035701;28;101687;-36
2022/01/28 09:55:23;;;;;;;4.63;1.42;;;;;;;5.75;83.79;103678.75;5035648;28;101726;-36
2022/01/28 09:57:54;;;;;;;5.68;1.58;;;;;;;5.95;83.50;103678.84;5034898;28;96828;-36
2022/01/28 10:00:23;;;;;;;3.38;1.20;;;;;;;6.06;82.71;103670.81;5035817;28;96764;-36
2022/01/28 10:03:04;;;;;;;2.88;0.95;;;;;;;6.25;82.57;103674.47;5035462;28;101371;-36
2022/01/28 10:05:32;;;;;;;1.73;1.05;;;;;;;6.35;82.52;103670.00;5036466;27;98973;-36
2022/01/28 10:08:15;;;;;;;5.75;1.00;;;;;;;6.53;81.93;103680.78;5035743;28;96779;-36
2022/01/28 10:10:46;;;;;;;4.93;1.42;;;;;;;6.64;81.55;103678.09;5037157;27;96705;-36
2022/01/28 10:13:16;;;;;;;1.70;1.23;;;;;;;6.65;81.38;103663.75;5035439;28;98857;-36
2022/01/28 10:15:59;;;;;;;2.83;1.13;;;;;;;6.88;81.09;103692.47;5035655;28;100853;-36
2022/01/28 10:18:37;;;;;;;6.03;1.13;;;;;;;7.02;80.38;103694.25;5035728;28;96793;-36
2022/01/28 10:21:29;;;;;;;0.98;0.82;;;;;;;7.08;80.72;103679.91;5036939;28;96712;-36
2022/01/28 10:24:12;;;;;;;2.72;1.05;;;;;;;7.07;79.50;103691.56;5034580;28;101271;-36
2022/01/28 10:26:51;;;;;;;5.45;0.52;;;;;;;7.10;80.20;103694.22;5035041;28;100749;-35
2022/01/28 10:29:27;;;;;;;2.03;1.00;;;;;;;6.97;80.54;103687.09;5035353;28;96541;-36
2022/01/28 10:31:55;;;;;;;1.60;0.63;;;;;;;7.11;80.66;103677.19;5035241;28;96704;-36
2022/01/28 10:34:47;;;;;;;12.68;0.82;;;;;;;7.40;80.12;103698.69;5035036;28;101054;-36
2022/01/28 10:37:25;;;;;;;0.87;0.70;;;;;;;7.50;80.05;103672.59;5034788;27;99257;-36
2022/01/28 10:39:53;;;;;;;2.05;0.50;;;;;;;7.79;79.58;103701.25;5035363;28;96634;-36
2022/01/28 10:42:25;;;;;;;3.13;1.02;;;;;;;7.97;79.33;103698.50;5036087;27;96736;-36
2022/01/28 10:44:57;;;;;;;4.63;0.75;;;;;;;7.97;78.93;103685.00;5036065;28;106942;-36
2022/01/28 10:47:30;;;;;;;1.15;0.70;;;;;;;8.17;78.03;103697.50;5036189;27;99259;-36
2022/01/28 10:49:56;;;;;;;7.20;1.25;;;;;;;8.18;78.21;103669.59;5033744;28;107719;-36
2022/01/28 10:52:30;;;;;;;1.85;0.50;;;;;;;8.37;78.01;103684.78;5034921;28;96897;-36
2022/01/28 10:55:00;;;;;;;2.40;0.90;;;;;;;8.33;77.73;103671.31;5036669;28;97380;-36
2022/01/28 10:57:29;;;;;;;2.63;0.93;;;;;;;8.57;77.47;103689.19;5036228;27;97158;-36
2022/01/28 10:59:55;;;;;;;1.88;0.93;;;;;;;8.65;77.54;103674.72;5035948;27;96481;-36
2022/01/28 11:02:24;;;;;;;6.95;0.57;;;;;;;8.75;77.03;103658.38;5034849;28;96802;-36
2022/01/28 11:04:52;;;;;;;1.35;0.77;;;;;;;8.78;77.23;103653.88;5033958;28;98891;-36
2022/01/28 11:07:18;;;;;;;3.80;0.85;;;;;;;9.02;76.11;103668.06;5034863;28;100967;-36
2022/01/28 11:09:43;;;;;;;0.82;0.80;;;;;;;9.00;75.75;103648.25;5036230;27;96563;-36
2022/01/28 11:12:09;;;;;;;6.68;1.23;;;;;;;8.87;75.97;103651.09;5036157;28;96774;-36
2022/01/28 11:14:35;;;;;;;3.35;1.35;;;;;;;8.89;76.74;103665.50;5033865;28;98867;-36
2022/01/28 11:17:00;;;;;;;2.50;1.25;;;;;;;8.75;76.52;103643.09;5035702;27;97372;-36
2022/01/28 11:19:32;;;;;;;3.75;1.55;;;;;;;8.90;76.68;103656.47;5035409;27;96949;-36
2022/01/28 11:22:13;;;;;;;7.53;1.70;;;;;;;9.05;77.02;103659.94;5034595;28;96701;-35
2022/01/28 11:25:26;;;;;;;6.37;1.83;;;;;;;9.08;76.83;103655.41;5034268;28;101027;-36
2022/01/28 11:27:51;;;;;;;4.15;1.58;;;;;;;9.03;76.24;103641.00;5034167;28;101177;-36
2022/01/28 11:30:25;;;;;;;3.85;1.58;;;;;;;8.98;76.37;103632.06;5035959;28;96581;-36
2022/01/28 11:33:02;;;;;;;4.32;1.05;;;;;;;8.82;76.34;103638.50;5036335;27;96624;-35
2022/01/28 11:35:31;;;;;;;4.13;1.52;;;;;;;8.55;76.20;103613.53;5035619;28;97966;-36
2022/01/28 11:38:03;;;;;;;2.40;1.35;;;;;;;8.67;77.27;103634.16;5033625;28;100696;-36
2022/01/28 11:40:41;;;;;;;4.13;2.05;;;;;;;8.44;77.38;103605.53;5035528;28;96737;-36
2022/01/28 11:43:18;;;;;;;4.35;1.50;;;;;;;8.81;77.19;103637.63;5033905;28;96720;-36
2022/01/28 11:45:43;;;;;;;3.47;1.45;;;;;;;8.99;76.75;103630.28;5033648;28;102972;-36
2022/01/28 11:48:09;;;;;;;6.03;1.20;;;;;;;8.78;76.71;103604.34;5031876;28;119032;-36
2022/01/28 11:50:34;;;;;;;2.97;1.73;;;;;;;8.92;77.07;103627.63;5034402;27;97044;-36
2022/01/28 11:53:00;;;;;;;5.80;1.67;;;;;;;8.87;76.57;103607.84;5035450;27;96700;-36
2022/01/28 11:55:28;;;;;;;3.65;1.63;;;;;;;8.83;76.83;103592.56;5035337;27;98025;-36
2022/01/28 11:58:03;;;;;;;6.00;1.73;;;;;;;9.09;75.98;103600.41;5035631;27;97286;-36
2022/01/28 12:00:34;;;;;;;2.90;1.08;;;;;;;9.42;75.58;103621.69;5035575;27;96554;-36
2022/01/28 12:03:01;;;;;;;3.85;1.67;;;;;;;9.53;75.08;103612.53;5033408;28;96685;-35
2022/01/28 12:05:29;;;;;;;2.17;1.15;;;;;;;9.45;75.50;103619.81;5034658;28;98009;-36
2022/01/28 12:08:05;;;;;;;2.10;1.17;;;;;;;9.30;76.37;103606.50;5034969;28;104386;-36
2022/01/28 12:10:33;;;;;;;3.20;1.58;;;;;;;9.13;76.26;103604.88;5035463;27;96570;-36
2022/01/28 12:13:00;;;;;;;3.13;1.67;;;;;;;8.85;75.83;103587.16;5033801;28;96897;-36
2022/01/28 12:15:29;;;;;;;6.60;1.83;;;;;;;8.98;76.62;103590.59;5034649;28;97564;-36
2022/01/28 12:18:11;;;;;;;2.75;1.38;;;;;;;9.21;76.23;103588.53;5034652;27;98183;-36
2022/01/28 12:20:42;;;;;;;2.42;1.15;;;;;;;9.35;76.54;103581.16;5035404;28;96704;-36
2022/01/28 12:23:10;;;;;;;3.72;1.88;;;;;;;9.35;75.28;103580.28;5034200;28;96697;-36
2022/01/28 12:25:35;;;;;;;1.83;1.15;;;;;;;9.39;75.77;103564.88;5034611;28;105205;-35
2022/01/28 12:28:23;;;;;;;2.25;1.15;;;;;;;9.39;75.56;103564.88;5034439;28;97906;-36
2022/01/28 12:30:56;;;;;;;2.47;1.05;;;;;;;9.20;75.77;103540.78;5032983;28;96713;-36
2022/01/28 12:33:24;;;;;;;2.70;1.40;;;;;;;9.07;75.47;103545.44;5033579;28;96697;-35
2022/01/28 12:35:52;;;;;;;1.77;1.25;;;;;;;9.10;76.09;103566.13;5033052;28;101157;-35
2022/01/28 12:38:22;;;;;;;2.20;1.10;;;;;;;9.15;76.75;103548.03;5032859;28;98930;-36
2022/01/28 12:40:52;;;;;;;3.63;1.02;;;;;;;9.32;76.23;103540.63;5034879;27;96748;-36
2022/01/28 12:43:22;;;;;;;5.45;1.55;;;;;;;9.45;75.51;103537.75;5033364;28;96802;-36
2022/01/28 12:46:08;;;;;;;6.85;1.10;;;;;;;9.72;74.55;103533.75;5034751;27;97399;-35
2022/01/28 12:48:34;;;;;;;2.17;1.05;;;;;;;9.88;74.53;103531.72;5034549;28;97922;-35
2022/01/28 12:51:01;;;;;;;3.60;0.90;;;;;;;10.00;73.29;103526.13;5034428;28;96562;-36
2022/01/28 12:53:39;;;;;;;2.90;0.90;;;;;;;10.18;74.04;103533.94;5033285;28;97014;-36
2022/01/28 12:56:06;;;;;;;3.00;0.88;;;;;;;10.25;71.25;103523.91;5034104;28;98209;-36
2022/01/28 12:58:49;;;;;;;2.67;0.82;;;;;;;10.22;72.11;103523.94;5032675;28;100721;-36
2022/01/28 13:01:17;;;;;;;4.43;0.95;;;;;;;10.16;71.97;103508.69;5033045;28;96709;-36
2022/01/28 13:06:42;;;;;;;10.13;1.42;;;;;;;10.34;70.82;103522.88;5036352;27;97548;-36